sensor_id;sensor_type;location;lat;lon;timestamp;P1;durP1;ratioP1;P2;durP2;ratioP2
41755;SDS011;27435;48.480;9.258;2023-10-19T00:01:13;3.90;;;2.22;;
41755;SDS011;27435;48.480;9.258;2023-10-19T00:03:40;6.53;;;2.08;;
41755;SDS011;27435;48.480;9.258;2023-10-19T00:06:07;4.47;;;2.05;;
41755;SDS011;27435;48.480;9.258;2023-10-19T00:08:32;4.65;;;1.80;;
41755;SDS011;27435;48.480;9.258;2023-10-19T00:11:07;3.15;;;1.60;;
41755;SDS011;27435;48.480;9.258;2023-10-19T00:13:38;2.63;;;1.48;;
41755;SDS011;27435;48.480;9.258;2023-10-19T00:16:05;5.00;;;1.50;;
41755;SDS011;27435;48.480;9.258;2023-10-19T00:18:41;4.05;;;1.55;;
41755;SDS011;27435;48.480;9.258;2023-10-19T00:21:14;4.47;;;1.48;;
41755;SDS011;27435;48.480;9.258;2023-10-19T00:23:51;6.00;;;1.58;;
41755;SDS011;27435;48.480;9.258;2023-10-19T00:26:22;7.43;;;1.75;;
41755;SDS011;27435;48.480;9.258;2023-10-19T00:28:51;4.50;;;1.60;;
41755;SDS011;27435;48.480;9.258;2023-10-19T00:31:25;5.47;;;1.55;;
41755;SDS011;27435;48.480;9.258;2023-10-19T00:33:52;4.30;;;1.80;;
41755;SDS011;27435;48.480;9.258;2023-10-19T00:36:22;3.65;;;1.55;;
41755;SDS011;27435;48.480;9.258;2023-10-19T00:38:48;3.25;;;1.60;;
41755;SDS011;27435;48.480;9.258;2023-10-19T00:41:14;4.97;;;1.35;;
41755;SDS011;27435;48.480;9.258;2023-10-19T00:43:48;5.32;;;2.00;;
41755;SDS011;27435;48.480;9.258;2023-10-19T00:46:15;3.13;;;1.40;;
41755;SDS011;27435;48.480;9.258;2023-10-19T00:48:51;6.05;;;1.80;;
41755;SDS011;27435;48.480;9.258;2023-10-19T00:52:08;5.05;;;2.40;;
41755;SDS011;27435;48.480;9.258;2023-10-19T00:54:18;4.65;;;1.73;;
41755;SDS011;27435;48.480;9.258;2023-10-19T00:56:55;3.83;;;1.90;;
41755;SDS011;27435;48.480;9.258;2023-10-19T00:59:23;5.88;;;1.70;;
41755;SDS011;27435;48.480;9.258;2023-10-19T01:01:55;4.60;;;1.98;;
41755;SDS011;27435;48.480;9.258;2023-10-19T01:04:41;4.72;;;1.90;;
41755;SDS011;27435;48.480;9.258;2023-10-19T01:07:08;5.93;;;1.85;;
41755;SDS011;27435;48.480;9.258;2023-10-19T01:09:42;4.30;;;2.45;;
41755;SDS011;27435;48.480;9.258;2023-10-19T01:12:09;3.90;;;1.88;;
41755;SDS011;27435;48.480;9.258;2023-10-19T01:17:40;4.63;;;1.50;;
41755;SDS011;27435;48.480;9.258;2023-10-19T01:20:09;3.13;;;1.60;;
41755;SDS011;27435;48.480;9.258;2023-10-19T01:22:52;3.20;;;1.65;;
41755;SDS011;27435;48.480;9.258;2023-10-19T01:25:43;4.70;;;1.80;;
41755;SDS011;27435;48.480;9.258;2023-10-19T01:28:22;4.05;;;1.85;;
41755;SDS011;27435;48.480;9.258;2023-10-19T01:31:12;2.70;;;1.48;;
41755;SDS011;27435;48.480;9.258;2023-10-19T01:33:40;5.38;;;2.25;;
41755;SDS011;27435;48.480;9.258;2023-10-19T01:36:07;5.47;;;2.08;;
41755;SDS011;27435;48.480;9.258;2023-10-19T01:38:37;4.45;;;1.80;;
41755;SDS011;27435;48.480;9.258;2023-10-19T01:41:04;4.13;;;1.60;;
41755;SDS011;27435;48.480;9.258;2023-10-19T01:43:42;7.57;;;1.90;;
41755;SDS011;27435;48.480;9.258;2023-10-19T01:46:09;4.38;;;2.00;;
41755;SDS011;27435;48.480;9.258;2023-10-19T01:48:41;4.88;;;1.63;;
41755;SDS011;27435;48.480;9.258;2023-10-19T01:51:18;3.97;;;2.15;;
41755;SDS011;27435;48.480;9.258;2023-10-19T01:53:46;8.52;;;3.15;;
41755;SDS011;27435;48.480;9.258;2023-10-19T01:56:12;5.68;;;1.92;;
41755;SDS011;27435;48.480;9.258;2023-10-19T01:58:40;3.03;;;1.80;;
41755;SDS011;27435;48.480;9.258;2023-10-19T02:01:07;5.10;;;1.80;;
41755;SDS011;27435;48.480;9.258;2023-10-19T02:03:37;4.97;;;2.33;;
41755;SDS011;27435;48.480;9.258;2023-10-19T02:06:07;5.85;;;1.70;;
41755;SDS011;27435;48.480;9.258;2023-10-19T02:08:46;5.63;;;1.80;;
41755;SDS011;27435;48.480;9.258;2023-10-19T02:11:15;4.30;;;1.80;;
41755;SDS011;27435;48.480;9.258;2023-10-19T02:13:44;5.43;;;1.90;;
41755;SDS011;27435;48.480;9.258;2023-10-19T02:16:14;4.80;;;1.40;;
41755;SDS011;27435;48.480;9.258;2023-10-19T02:18:44;2.67;;;1.27;;
41755;SDS011;27435;48.480;9.258;2023-10-19T02:21:13;8.68;;;1.80;;
41755;SDS011;27435;48.480;9.258;2023-10-19T02:23:39;6.43;;;1.60;;
41755;SDS011;27435;48.480;9.258;2023-10-19T02:26:08;3.72;;;1.88;;
41755;SDS011;27435;48.480;9.258;2023-10-19T02:28:37;3.78;;;1.70;;
41755;SDS011;27435;48.480;9.258;2023-10-19T02:31:03;14.77;;;2.25;;
41755;SDS011;27435;48.480;9.258;2023-10-19T02:33:44;6.60;;;2.47;;
41755;SDS011;27435;48.480;9.258;2023-10-19T02:36:26;9.38;;;2.17;;
41755;SDS011;27435;48.480;9.258;2023-10-19T02:39:02;4.63;;;2.30;;
41755;SDS011;27435;48.480;9.258;2023-10-19T02:41:36;5.00;;;2.08;;
41755;SDS011;27435;48.480;9.258;2023-10-19T02:44:03;4.50;;;2.15;;
41755;SDS011;27435;48.480;9.258;2023-10-19T02:46:29;7.30;;;2.30;;
41755;SDS011;27435;48.480;9.258;2023-10-19T02:48:59;3.33;;;2.13;;
41755;SDS011;27435;48.480;9.258;2023-10-19T02:51:58;5.15;;;2.25;;
41755;SDS011;27435;48.480;9.258;2023-10-19T02:54:32;5.03;;;2.60;;
41755;SDS011;27435;48.480;9.258;2023-10-19T02:57:00;6.68;;;2.40;;
41755;SDS011;27435;48.480;9.258;2023-10-19T02:59:27;3.90;;;2.00;;
41755;SDS011;27435;48.480;9.258;2023-10-19T03:01:55;6.85;;;2.10;;
41755;SDS011;27435;48.480;9.258;2023-10-19T03:04:37;4.32;;;2.20;;
41755;SDS011;27435;48.480;9.258;2023-10-19T03:07:03;3.80;;;2.33;;
41755;SDS011;27435;48.480;9.258;2023-10-19T03:09:30;5.25;;;2.50;;
41755;SDS011;27435;48.480;9.258;2023-10-19T03:11:57;6.82;;;1.98;;
41755;SDS011;27435;48.480;9.258;2023-10-19T03:14:30;7.55;;;2.42;;
41755;SDS011;27435;48.480;9.258;2023-10-19T03:16:57;4.80;;;2.10;;
41755;SDS011;27435;48.480;9.258;2023-10-19T03:19:24;6.35;;;2.75;;
41755;SDS011;27435;48.480;9.258;2023-10-19T03:21:50;7.07;;;1.90;;
41755;SDS011;27435;48.480;9.258;2023-10-19T03:24:16;5.95;;;1.80;;
41755;SDS011;27435;48.480;9.258;2023-10-19T03:27:01;4.17;;;1.73;;
41755;SDS011;27435;48.480;9.258;2023-10-19T03:29:43;3.67;;;2.20;;
41755;SDS011;27435;48.480;9.258;2023-10-19T03:32:11;4.97;;;2.15;;
41755;SDS011;27435;48.480;9.258;2023-10-19T03:34:37;7.50;;;2.08;;
41755;SDS011;27435;48.480;9.258;2023-10-19T03:37:03;4.78;;;1.88;;
41755;SDS011;27435;48.480;9.258;2023-10-19T03:39:35;4.35;;;1.70;;
41755;SDS011;27435;48.480;9.258;2023-10-19T03:42:04;5.63;;;1.75;;
41755;SDS011;27435;48.480;9.258;2023-10-19T03:44:39;4.90;;;2.20;;
41755;SDS011;27435;48.480;9.258;2023-10-19T03:47:25;4.90;;;1.87;;
41755;SDS011;27435;48.480;9.258;2023-10-19T03:50:02;8.68;;;2.33;;
41755;SDS011;27435;48.480;9.258;2023-10-19T03:52:32;4.20;;;2.45;;
41755;SDS011;27435;48.480;9.258;2023-10-19T03:55:02;7.57;;;3.00;;
41755;SDS011;27435;48.480;9.258;2023-10-19T03:57:30;6.80;;;2.37;;
41755;SDS011;27435;48.480;9.258;2023-10-19T04:00:03;3.77;;;2.40;;
41755;SDS011;27435;48.480;9.258;2023-10-19T04:02:29;5.57;;;2.70;;
41755;SDS011;27435;48.480;9.258;2023-10-19T04:05:00;7.67;;;2.80;;
41755;SDS011;27435;48.480;9.258;2023-10-19T04:07:27;6.53;;;2.90;;
41755;SDS011;27435;48.480;9.258;2023-10-19T04:09:56;5.37;;;2.60;;
41755;SDS011;27435;48.480;9.258;2023-10-19T04:12:28;5.93;;;2.97;;
41755;SDS011;27435;48.480;9.258;2023-10-19T04:14:56;7.23;;;3.13;;
41755;SDS011;27435;48.480;9.258;2023-10-19T04:17:25;5.73;;;3.07;;
41755;SDS011;27435;48.480;9.258;2023-10-19T04:19:50;6.93;;;3.57;;
41755;SDS011;27435;48.480;9.258;2023-10-19T04:22:17;5.47;;;2.93;;
41755;SDS011;27435;48.480;9.258;2023-10-19T04:24:50;7.23;;;3.57;;
41755;SDS011;27435;48.480;9.258;2023-10-19T04:27:16;9.43;;;3.60;;
41755;SDS011;27435;48.480;9.258;2023-10-19T04:29:41;11.57;;;3.50;;
41755;SDS011;27435;48.480;9.258;2023-10-19T04:32:09;8.67;;;3.73;;
41755;SDS011;27435;48.480;9.258;2023-10-19T04:34:35;6.47;;;3.43;;
41755;SDS011;27435;48.480;9.258;2023-10-19T04:37:02;11.47;;;4.10;;
41755;SDS011;27435;48.480;9.258;2023-10-19T04:39:28;7.60;;;3.93;;
41755;SDS011;27435;48.480;9.258;2023-10-19T04:41:55;8.07;;;4.00;;
41755;SDS011;27435;48.480;9.258;2023-10-19T04:44:21;7.50;;;3.67;;
41755;SDS011;27435;48.480;9.258;2023-10-19T04:46:47;10.17;;;3.67;;
41755;SDS011;27435;48.480;9.258;2023-10-19T04:49:13;9.03;;;3.43;;
41755;SDS011;27435;48.480;9.258;2023-10-19T04:51:39;10.20;;;2.97;;
41755;SDS011;27435;48.480;9.258;2023-10-19T04:54:05;8.47;;;4.40;;
41755;SDS011;27435;48.480;9.258;2023-10-19T04:56:33;12.50;;;4.17;;
41755;SDS011;27435;48.480;9.258;2023-10-19T04:59:01;11.53;;;3.47;;
41755;SDS011;27435;48.480;9.258;2023-10-19T05:01:27;6.60;;;2.63;;
41755;SDS011;27435;48.480;9.258;2023-10-19T05:03:53;10.03;;;4.03;;
41755;SDS011;27435;48.480;9.258;2023-10-19T05:06:19;6.30;;;3.47;;
41755;SDS011;27435;48.480;9.258;2023-10-19T05:08:44;4.60;;;2.13;;
41755;SDS011;27435;48.480;9.258;2023-10-19T05:11:11;5.67;;;2.27;;
41755;SDS011;27435;48.480;9.258;2023-10-19T05:13:37;4.80;;;1.97;;
41755;SDS011;27435;48.480;9.258;2023-10-19T05:16:04;7.73;;;1.87;;
41755;SDS011;27435;48.480;9.258;2023-10-19T05:18:29;6.00;;;2.73;;
41755;SDS011;27435;48.480;9.258;2023-10-19T05:20:55;6.57;;;2.03;;
41755;SDS011;27435;48.480;9.258;2023-10-19T05:23:24;3.95;;;1.75;;
41755;SDS011;27435;48.480;9.258;2023-10-19T05:25:52;3.17;;;1.45;;
41755;SDS011;27435;48.480;9.258;2023-10-19T05:28:19;9.23;;;1.40;;
41755;SDS011;27435;48.480;9.258;2023-10-19T05:30:46;6.97;;;1.30;;
41755;SDS011;27435;48.480;9.258;2023-10-19T05:33:13;5.30;;;1.35;;
41755;SDS011;27435;48.480;9.258;2023-10-19T05:35:39;8.00;;;1.88;;
41755;SDS011;27435;48.480;9.258;2023-10-19T05:38:06;4.22;;;1.25;;
41755;SDS011;27435;48.480;9.258;2023-10-19T05:40:32;2.13;;;1.35;;
41755;SDS011;27435;48.480;9.258;2023-10-19T05:42:59;6.05;;;1.48;;
41755;SDS011;27435;48.480;9.258;2023-10-19T05:45:26;3.33;;;1.25;;
41755;SDS011;27435;48.480;9.258;2023-10-19T05:47:53;3.90;;;1.25;;
41755;SDS011;27435;48.480;9.258;2023-10-19T05:50:22;3.25;;;1.40;;
41755;SDS011;27435;48.480;9.258;2023-10-19T05:52:49;8.70;;;1.65;;
41755;SDS011;27435;48.480;9.258;2023-10-19T05:55:14;4.32;;;1.40;;
41755;SDS011;27435;48.480;9.258;2023-10-19T05:57:41;4.97;;;1.40;;
41755;SDS011;27435;48.480;9.258;2023-10-19T06:00:07;3.13;;;1.20;;
41755;SDS011;27435;48.480;9.258;2023-10-19T06:02:48;3.03;;;1.35;;
41755;SDS011;27435;48.480;9.258;2023-10-19T06:05:15;11.52;;;2.03;;
41755;SDS011;27435;48.480;9.258;2023-10-19T06:07:41;3.72;;;1.15;;
41755;SDS011;27435;48.480;9.258;2023-10-19T06:10:10;3.58;;;1.15;;
41755;SDS011;27435;48.480;9.258;2023-10-19T06:12:41;3.55;;;1.50;;
41755;SDS011;27435;48.480;9.258;2023-10-19T06:15:07;2.50;;;1.30;;
41755;SDS011;27435;48.480;9.258;2023-10-19T06:17:35;3.33;;;1.60;;
41755;SDS011;27435;48.480;9.258;2023-10-19T06:20:06;2.90;;;1.45;;
41755;SDS011;27435;48.480;9.258;2023-10-19T06:22:34;6.57;;;1.65;;
41755;SDS011;27435;48.480;9.258;2023-10-19T06:25:01;2.58;;;1.20;;
41755;SDS011;27435;48.480;9.258;2023-10-19T06:27:30;3.35;;;1.33;;
41755;SDS011;27435;48.480;9.258;2023-10-19T06:29:56;4.15;;;1.50;;
41755;SDS011;27435;48.480;9.258;2023-10-19T06:32:22;4.15;;;1.42;;
41755;SDS011;27435;48.480;9.258;2023-10-19T06:34:47;3.58;;;1.30;;
41755;SDS011;27435;48.480;9.258;2023-10-19T06:37:13;5.43;;;1.48;;
41755;SDS011;27435;48.480;9.258;2023-10-19T06:39:38;2.83;;;1.45;;
41755;SDS011;27435;48.480;9.258;2023-10-19T06:42:07;3.03;;;1.00;;
41755;SDS011;27435;48.480;9.258;2023-10-19T06:44:39;2.97;;;1.20;;
41755;SDS011;27435;48.480;9.258;2023-10-19T06:47:07;6.07;;;1.30;;
41755;SDS011;27435;48.480;9.258;2023-10-19T06:49:33;4.60;;;1.00;;
41755;SDS011;27435;48.480;9.258;2023-10-19T06:51:59;2.60;;;1.17;;
41755;SDS011;27435;48.480;9.258;2023-10-19T06:54:25;2.63;;;1.10;;
41755;SDS011;27435;48.480;9.258;2023-10-19T06:56:52;5.38;;;1.58;;
41755;SDS011;27435;48.480;9.258;2023-10-19T06:59:18;7.20;;;1.33;;
41755;SDS011;27435;48.480;9.258;2023-10-19T07:01:44;3.00;;;1.20;;
41755;SDS011;27435;48.480;9.258;2023-10-19T07:04:09;3.55;;;1.10;;
41755;SDS011;27435;48.480;9.258;2023-10-19T07:06:35;4.28;;;1.42;;
41755;SDS011;27435;48.480;9.258;2023-10-19T07:09:03;3.03;;;1.20;;
41755;SDS011;27435;48.480;9.258;2023-10-19T07:11:30;3.10;;;1.38;;
41755;SDS011;27435;48.480;9.258;2023-10-19T07:13:56;3.60;;;1.25;;
41755;SDS011;27435;48.480;9.258;2023-10-19T07:16:22;2.22;;;1.00;;
41755;SDS011;27435;48.480;9.258;2023-10-19T07:18:47;4.70;;;0.98;;
41755;SDS011;27435;48.480;9.258;2023-10-19T07:21:13;2.22;;;0.98;;
41755;SDS011;27435;48.480;9.258;2023-10-19T07:23:39;4.80;;;1.20;;
41755;SDS011;27435;48.480;9.258;2023-10-19T07:26:05;4.68;;;1.10;;
41755;SDS011;27435;48.480;9.258;2023-10-19T07:28:31;7.57;;;0.90;;
41755;SDS011;27435;48.480;9.258;2023-10-19T07:30:57;3.67;;;1.55;;
41755;SDS011;27435;48.480;9.258;2023-10-19T07:33:24;2.63;;;1.10;;
41755;SDS011;27435;48.480;9.258;2023-10-19T07:35:51;1.70;;;0.90;;
41755;SDS011;27435;48.480;9.258;2023-10-19T07:38:20;2.63;;;0.80;;
41755;SDS011;27435;48.480;9.258;2023-10-19T07:40:47;4.43;;;1.10;;
41755;SDS011;27435;48.480;9.258;2023-10-19T07:43:12;2.95;;;0.90;;
41755;SDS011;27435;48.480;9.258;2023-10-19T07:45:38;3.97;;;1.08;;
41755;SDS011;27435;48.480;9.258;2023-10-19T07:48:04;2.10;;;1.00;;
41755;SDS011;27435;48.480;9.258;2023-10-19T07:50:35;3.75;;;1.25;;
41755;SDS011;27435;48.480;9.258;2023-10-19T07:53:01;3.83;;;1.10;;
41755;SDS011;27435;48.480;9.258;2023-10-19T07:55:28;1.65;;;0.88;;
41755;SDS011;27435;48.480;9.258;2023-10-19T07:57:54;6.97;;;1.30;;
41755;SDS011;27435;48.480;9.258;2023-10-19T08:00:21;2.30;;;0.90;;
41755;SDS011;27435;48.480;9.258;2023-10-19T08:02:48;2.47;;;1.00;;
41755;SDS011;27435;48.480;9.258;2023-10-19T08:05:14;5.18;;;1.02;;
41755;SDS011;27435;48.480;9.258;2023-10-19T08:07:41;4.00;;;0.90;;
41755;SDS011;27435;48.480;9.258;2023-10-19T08:10:10;1.98;;;1.00;;
41755;SDS011;27435;48.480;9.258;2023-10-19T08:12:39;2.85;;;1.10;;
41755;SDS011;27435;48.480;9.258;2023-10-19T08:15:10;1.77;;;0.82;;
41755;SDS011;27435;48.480;9.258;2023-10-19T08:17:40;2.80;;;1.25;;
41755;SDS011;27435;48.480;9.258;2023-10-19T08:20:07;2.25;;;0.85;;
41755;SDS011;27435;48.480;9.258;2023-10-19T08:22:38;3.67;;;0.82;;
41755;SDS011;27435;48.480;9.258;2023-10-19T08:25:04;1.65;;;0.60;;
41755;SDS011;27435;48.480;9.258;2023-10-19T08:27:37;3.30;;;1.02;;
41755;SDS011;27435;48.480;9.258;2023-10-19T08:30:09;2.53;;;0.60;;
41755;SDS011;27435;48.480;9.258;2023-10-19T08:32:35;3.15;;;0.70;;
41755;SDS011;27435;48.480;9.258;2023-10-19T08:35:02;2.88;;;1.50;;
41755;SDS011;27435;48.480;9.258;2023-10-19T08:37:28;4.47;;;1.98;;
41755;SDS011;27435;48.480;9.258;2023-10-19T08:39:53;5.63;;;1.85;;
41755;SDS011;27435;48.480;9.258;2023-10-19T08:42:19;12.25;;;4.40;;
41755;SDS011;27435;48.480;9.258;2023-10-19T08:44:45;13.32;;;5.35;;
41755;SDS011;27435;48.480;9.258;2023-10-19T08:47:11;18.02;;;4.68;;
41755;SDS011;27435;48.480;9.258;2023-10-19T08:49:38;14.18;;;6.00;;
41755;SDS011;27435;48.480;9.258;2023-10-19T08:52:04;9.98;;;5.35;;
41755;SDS011;27435;48.480;9.258;2023-10-19T08:54:32;12.05;;;5.40;;
41755;SDS011;27435;48.480;9.258;2023-10-19T08:56:59;12.45;;;6.18;;
41755;SDS011;27435;48.480;9.258;2023-10-19T08:59:25;12.80;;;5.32;;
41755;SDS011;27435;48.480;9.258;2023-10-19T09:01:59;11.80;;;5.25;;
41755;SDS011;27435;48.480;9.258;2023-10-19T09:04:28;10.75;;;5.43;;
41755;SDS011;27435;48.480;9.258;2023-10-19T09:06:54;10.23;;;5.45;;
41755;SDS011;27435;48.480;9.258;2023-10-19T09:09:20;10.75;;;6.05;;
41755;SDS011;27435;48.480;9.258;2023-10-19T09:11:46;12.98;;;5.13;;
41755;SDS011;27435;48.480;9.258;2023-10-19T09:14:13;8.02;;;5.18;;
41755;SDS011;27435;48.480;9.258;2023-10-19T09:16:53;10.73;;;4.70;;
41755;SDS011;27435;48.480;9.258;2023-10-19T09:19:38;8.52;;;4.38;;
41755;SDS011;27435;48.480;9.258;2023-10-19T09:22:06;8.82;;;4.80;;
41755;SDS011;27435;48.480;9.258;2023-10-19T09:24:36;7.60;;;4.63;;
41755;SDS011;27435;48.480;9.258;2023-10-19T09:27:03;10.52;;;4.53;;
41755;SDS011;27435;48.480;9.258;2023-10-19T09:29:29;8.02;;;4.28;;
41755;SDS011;27435;48.480;9.258;2023-10-19T09:31:57;10.30;;;4.78;;
41755;SDS011;27435;48.480;9.258;2023-10-19T09:34:27;11.40;;;5.18;;
41755;SDS011;27435;48.480;9.258;2023-10-19T09:36:58;10.40;;;4.97;;
41755;SDS011;27435;48.480;9.258;2023-10-19T09:39:28;7.70;;;4.88;;
41755;SDS011;27435;48.480;9.258;2023-10-19T09:42:05;9.25;;;4.50;;
41755;SDS011;27435;48.480;9.258;2023-10-19T09:44:45;9.18;;;5.18;;
41755;SDS011;27435;48.480;9.258;2023-10-19T09:47:25;20.10;;;6.50;;
41755;SDS011;27435;48.480;9.258;2023-10-19T09:49:55;12.30;;;5.68;;
41755;SDS011;27435;48.480;9.258;2023-10-19T09:52:22;9.73;;;5.43;;
41755;SDS011;27435;48.480;9.258;2023-10-19T09:57:50;11.68;;;5.97;;
41755;SDS011;27435;48.480;9.258;2023-10-19T10:00:20;9.18;;;5.80;;
41755;SDS011;27435;48.480;9.258;2023-10-19T10:02:49;12.20;;;5.97;;
41755;SDS011;27435;48.480;9.258;2023-10-19T10:10:46;13.23;;;6.35;;
41755;SDS011;27435;48.480;9.258;2023-10-19T10:15:55;13.57;;;5.68;;
41755;SDS011;27435;48.480;9.258;2023-10-19T10:18:26;17.90;;;6.00;;
41755;SDS011;27435;48.480;9.258;2023-10-19T10:21:14;12.63;;;5.40;;
41755;SDS011;27435;48.480;9.258;2023-10-19T10:26:09;11.65;;;5.97;;
41755;SDS011;27435;48.480;9.258;2023-10-19T10:28:35;9.75;;;5.22;;
41755;SDS011;27435;48.480;9.258;2023-10-19T10:31:11;11.70;;;5.78;;
41755;SDS011;27435;48.480;9.258;2023-10-19T10:33:47;14.07;;;6.10;;
41755;SDS011;27435;48.480;9.258;2023-10-19T10:36:19;11.75;;;4.85;;
41755;SDS011;27435;48.480;9.258;2023-10-19T10:38:46;9.05;;;4.90;;
41755;SDS011;27435;48.480;9.258;2023-10-19T10:41:19;9.73;;;5.72;;
41755;SDS011;27435;48.480;9.258;2023-10-19T10:43:57;8.07;;;4.63;;
41755;SDS011;27435;48.480;9.258;2023-10-19T10:46:26;9.20;;;4.75;;
41755;SDS011;27435;48.480;9.258;2023-10-19T10:48:54;11.05;;;4.43;;
41755;SDS011;27435;48.480;9.258;2023-10-19T10:53:50;10.90;;;6.03;;
41755;SDS011;27435;48.480;9.258;2023-10-19T10:56:17;11.23;;;6.60;;
41755;SDS011;27435;48.480;9.258;2023-10-19T10:58:44;17.75;;;10.05;;
41755;SDS011;27435;48.480;9.258;2023-10-19T11:01:10;14.13;;;8.43;;
41755;SDS011;27435;48.480;9.258;2023-10-19T11:03:40;16.67;;;7.15;;
41755;SDS011;27435;48.480;9.258;2023-10-19T11:06:07;13.88;;;7.47;;
41755;SDS011;27435;48.480;9.258;2023-10-19T11:08:34;12.02;;;7.55;;
41755;SDS011;27435;48.480;9.258;2023-10-19T11:11:02;11.75;;;7.90;;
41755;SDS011;27435;48.480;9.258;2023-10-19T11:13:29;15.18;;;7.68;;
41755;SDS011;27435;48.480;9.258;2023-10-19T11:15:58;10.57;;;7.45;;
41755;SDS011;27435;48.480;9.258;2023-10-19T11:18:33;11.68;;;7.50;;
41755;SDS011;27435;48.480;9.258;2023-10-19T11:21:01;9.90;;;7.13;;
41755;SDS011;27435;48.480;9.258;2023-10-19T11:26:02;10.52;;;6.80;;
41755;SDS011;27435;48.480;9.258;2023-10-19T11:28:30;9.90;;;5.88;;
41755;SDS011;27435;48.480;9.258;2023-10-19T11:31:09;9.98;;;6.47;;
41755;SDS011;27435;48.480;9.258;2023-10-19T11:33:39;12.00;;;7.45;;
41755;SDS011;27435;48.480;9.258;2023-10-19T11:36:07;10.77;;;7.05;;
41755;SDS011;27435;48.480;9.258;2023-10-19T11:38:32;10.68;;;5.75;;
41755;SDS011;27435;48.480;9.258;2023-10-19T11:40:58;9.10;;;4.43;;
41755;SDS011;27435;48.480;9.258;2023-10-19T11:43:23;6.55;;;3.13;;
41755;SDS011;27435;48.480;9.258;2023-10-19T11:45:49;6.38;;;2.83;;
41755;SDS011;27435;48.480;9.258;2023-10-19T11:48:15;7.03;;;3.40;;
41755;SDS011;27435;48.480;9.258;2023-10-19T11:50:41;7.20;;;3.00;;
41755;SDS011;27435;48.480;9.258;2023-10-19T11:53:06;7.25;;;2.65;;
41755;SDS011;27435;48.480;9.258;2023-10-19T11:55:34;6.38;;;2.80;;
41755;SDS011;27435;48.480;9.258;2023-10-19T11:58:00;3.70;;;2.30;;
41755;SDS011;27435;48.480;9.258;2023-10-19T12:00:26;3.00;;;1.77;;
41755;SDS011;27435;48.480;9.258;2023-10-19T12:02:59;4.32;;;1.77;;
41755;SDS011;27435;48.480;9.258;2023-10-19T12:05:24;4.35;;;1.30;;
41755;SDS011;27435;48.480;9.258;2023-10-19T12:07:50;3.45;;;1.30;;
41755;SDS011;27435;48.480;9.258;2023-10-19T12:10:17;5.47;;;2.47;;
41755;SDS011;27435;48.480;9.258;2023-10-19T12:12:45;7.28;;;4.40;;
41755;SDS011;27435;48.480;9.258;2023-10-19T12:15:11;8.55;;;4.18;;
41755;SDS011;27435;48.480;9.258;2023-10-19T12:17:37;9.63;;;4.72;;
41755;SDS011;27435;48.480;9.258;2023-10-19T12:20:04;8.70;;;4.55;;
41755;SDS011;27435;48.480;9.258;2023-10-19T12:22:31;9.18;;;5.35;;
41755;SDS011;27435;48.480;9.258;2023-10-19T12:25:02;7.38;;;4.30;;
41755;SDS011;27435;48.480;9.258;2023-10-19T12:27:30;12.05;;;4.88;;
41755;SDS011;27435;48.480;9.258;2023-10-19T12:29:55;6.93;;;2.90;;
41755;SDS011;27435;48.480;9.258;2023-10-19T12:32:21;2.75;;;1.42;;
41755;SDS011;27435;48.480;9.258;2023-10-19T12:34:49;3.92;;;1.60;;
41755;SDS011;27435;48.480;9.258;2023-10-19T12:37:18;2.10;;;0.77;;
41755;SDS011;27435;48.480;9.258;2023-10-19T12:39:45;3.88;;;0.68;;
41755;SDS011;27435;48.480;9.258;2023-10-19T12:42:14;2.83;;;1.10;;
41755;SDS011;27435;48.480;9.258;2023-10-19T12:44:40;3.45;;;0.73;;
41755;SDS011;27435;48.480;9.258;2023-10-19T12:47:08;1.63;;;0.63;;
41755;SDS011;27435;48.480;9.258;2023-10-19T12:49:38;3.78;;;0.60;;
41755;SDS011;27435;48.480;9.258;2023-10-19T12:52:07;5.80;;;0.65;;
41755;SDS011;27435;48.480;9.258;2023-10-19T12:54:37;2.28;;;0.80;;
41755;SDS011;27435;48.480;9.258;2023-10-19T12:57:03;1.20;;;0.52;;
41755;SDS011;27435;48.480;9.258;2023-10-19T12:59:31;2.10;;;0.65;;
41755;SDS011;27435;48.480;9.258;2023-10-19T13:01:58;4.18;;;0.70;;
41755;SDS011;27435;48.480;9.258;2023-10-19T13:04:24;3.10;;;0.52;;
41755;SDS011;27435;48.480;9.258;2023-10-19T13:06:51;5.30;;;0.60;;
41755;SDS011;27435;48.480;9.258;2023-10-19T13:09:17;4.05;;;0.50;;
41755;SDS011;27435;48.480;9.258;2023-10-19T13:11:55;1.25;;;0.40;;
41755;SDS011;27435;48.480;9.258;2023-10-19T13:14:25;1.15;;;0.63;;
41755;SDS011;27435;48.480;9.258;2023-10-19T13:16:51;1.35;;;0.60;;
41755;SDS011;27435;48.480;9.258;2023-10-19T13:19:18;0.93;;;0.50;;
41755;SDS011;27435;48.480;9.258;2023-10-19T13:21:48;1.65;;;0.80;;
41755;SDS011;27435;48.480;9.258;2023-10-19T13:24:15;4.28;;;0.60;;
41755;SDS011;27435;48.480;9.258;2023-10-19T13:26:41;2.47;;;0.68;;
41755;SDS011;27435;48.480;9.258;2023-10-19T13:29:10;1.70;;;0.88;;
41755;SDS011;27435;48.480;9.258;2023-10-19T13:31:36;2.67;;;0.70;;
41755;SDS011;27435;48.480;9.258;2023-10-19T13:34:02;2.78;;;0.70;;
41755;SDS011;27435;48.480;9.258;2023-10-19T13:36:29;2.15;;;0.65;;
41755;SDS011;27435;48.480;9.258;2023-10-19T13:38:55;2.28;;;1.00;;
41755;SDS011;27435;48.480;9.258;2023-10-19T13:41:21;1.73;;;0.60;;
41755;SDS011;27435;48.480;9.258;2023-10-19T13:43:47;2.13;;;0.43;;
41755;SDS011;27435;48.480;9.258;2023-10-19T13:46:13;1.27;;;0.50;;
41755;SDS011;27435;48.480;9.258;2023-10-19T13:48:40;2.40;;;0.55;;
41755;SDS011;27435;48.480;9.258;2023-10-19T13:51:05;1.25;;;0.40;;
41755;SDS011;27435;48.480;9.258;2023-10-19T13:53:38;2.13;;;0.65;;
41755;SDS011;27435;48.480;9.258;2023-10-19T13:56:07;1.60;;;0.73;;
41755;SDS011;27435;48.480;9.258;2023-10-19T13:58:36;2.15;;;0.85;;
41755;SDS011;27435;48.480;9.258;2023-10-19T14:01:02;1.52;;;0.60;;
41755;SDS011;27435;48.480;9.258;2023-10-19T14:03:31;2.33;;;0.47;;
41755;SDS011;27435;48.480;9.258;2023-10-19T14:05:57;1.13;;;0.40;;
41755;SDS011;27435;48.480;9.258;2023-10-19T14:08:22;1.92;;;1.17;;
41755;SDS011;27435;48.480;9.258;2023-10-19T14:10:48;1.40;;;0.40;;
41755;SDS011;27435;48.480;9.258;2023-10-19T14:13:14;1.15;;;0.40;;
41755;SDS011;27435;48.480;9.258;2023-10-19T14:15:40;1.27;;;0.35;;
41755;SDS011;27435;48.480;9.258;2023-10-19T14:18:07;0.57;;;0.30;;
41755;SDS011;27435;48.480;9.258;2023-10-19T14:20:33;2.67;;;0.43;;
41755;SDS011;27435;48.480;9.258;2023-10-19T14:22:59;1.00;;;0.30;;
41755;SDS011;27435;48.480;9.258;2023-10-19T14:25:26;1.88;;;0.50;;
41755;SDS011;27435;48.480;9.258;2023-10-19T14:27:52;0.77;;;0.32;;
41755;SDS011;27435;48.480;9.258;2023-10-19T14:30:23;2.17;;;0.40;;
41755;SDS011;27435;48.480;9.258;2023-10-19T14:32:50;2.78;;;0.77;;
41755;SDS011;27435;48.480;9.258;2023-10-19T14:35:19;0.88;;;0.40;;
41755;SDS011;27435;48.480;9.258;2023-10-19T14:37:47;1.02;;;0.52;;
41755;SDS011;27435;48.480;9.258;2023-10-19T14:40:17;0.77;;;0.40;;
41755;SDS011;27435;48.480;9.258;2023-10-19T14:42:47;0.95;;;0.40;;
41755;SDS011;27435;48.480;9.258;2023-10-19T14:45:16;1.92;;;0.47;;
41755;SDS011;27435;48.480;9.258;2023-10-19T14:47:49;1.02;;;0.50;;
41755;SDS011;27435;48.480;9.258;2023-10-19T14:50:19;1.60;;;0.73;;
41755;SDS011;27435;48.480;9.258;2023-10-19T14:52:46;1.83;;;0.60;;
41755;SDS011;27435;48.480;9.258;2023-10-19T14:55:13;1.15;;;0.50;;
41755;SDS011;27435;48.480;9.258;2023-10-19T14:57:41;1.02;;;0.55;;
41755;SDS011;27435;48.480;9.258;2023-10-19T15:00:08;1.10;;;0.50;;
41755;SDS011;27435;48.480;9.258;2023-10-19T15:02:47;3.45;;;0.50;;
41755;SDS011;27435;48.480;9.258;2023-10-19T15:05:19;2.30;;;0.55;;
41755;SDS011;27435;48.480;9.258;2023-10-19T15:07:49;3.58;;;0.93;;
41755;SDS011;27435;48.480;9.258;2023-10-19T15:10:26;1.95;;;0.68;;
41755;SDS011;27435;48.480;9.258;2023-10-19T15:12:53;3.53;;;0.50;;
41755;SDS011;27435;48.480;9.258;2023-10-19T15:15:20;1.65;;;0.30;;
41755;SDS011;27435;48.480;9.258;2023-10-19T15:17:47;2.05;;;0.68;;